createdAt,value
2017-06-17T00:00:32.699Z,14.06
2017-06-17T00:01:13.228Z,14.03
2017-06-17T00:01:53.763Z,13.96
2017-06-17T00:02:34.302Z,14.03
2017-06-17T00:03:14.833Z,14.02
2017-06-17T00:03:55.366Z,14.02
2017-06-17T00:04:35.903Z,14.02
2017-06-17T00:05:16.448Z,14
2017-06-17T00:05:56.985Z,13.99
2017-06-17T00:06:37.518Z,13.97
2017-06-17T00:07:18.063Z,14.04
2017-06-17T00:07:58.635Z,13.99
2017-06-17T00:08:39.195Z,14
2017-06-17T00:09:19.733Z,13.96
2017-06-17T00:10:00.276Z,13.99
2017-06-17T00:10:40.817Z,14
2017-06-17T00:11:21.387Z,13.96
2017-06-17T00:12:01.908Z,13.92
2017-06-17T00:12:42.442Z,13.96
2017-06-17T00:13:22.982Z,13.97
2017-06-17T00:14:03.515Z,13.91
2017-06-17T00:14:44.064Z,13.96
2017-06-17T00:15:24.612Z,13.99
2017-06-17T00:16:05.134Z,13.97
2017-06-17T00:16:45.676Z,13.88
2017-06-17T00:17:26.217Z,13.95
2017-06-17T00:18:06.754Z,13.96
2017-06-17T00:18:47.298Z,13.99
2017-06-17T00:19:27.834Z,13.88
2017-06-17T00:20:08.368Z,13.85
2017-06-17T00:20:48.906Z,13.87
2017-06-17T00:21:29.426Z,13.88
2017-06-17T00:22:09.971Z,13.89
2017-06-17T00:22:50.500Z,13.87
2017-06-17T00:23:31.038Z,13.87
2017-06-17T00:24:11.570Z,13.89
2017-06-17T00:24:52.108Z,13.84
2017-06-17T00:25:32.641Z,13.79
2017-06-17T00:26:13.183Z,13.81
2017-06-17T00:26:53.693Z,13.81
2017-06-17T00:27:34.236Z,13.78
2017-06-17T00:28:14.782Z,13.78
2017-06-17T00:28:55.313Z,13.79
2017-06-17T00:29:35.847Z,13.79
2017-06-17T00:30:16.408Z,13.69
2017-06-17T00:30:56.939Z,13.73
2017-06-17T00:31:37.479Z,13.67
2017-06-17T00:32:18.020Z,13.75
2017-06-17T00:32:58.559Z,13.75
2017-06-17T00:33:39.102Z,13.7
2017-06-17T00:34:19.643Z,13.7
2017-06-17T00:35:00.180Z,13.75
2017-06-17T00:35:40.715Z,13.7
2017-06-17T00:36:21.262Z,13.69
2017-06-17T00:37:01.790Z,13.69
2017-06-17T00:37:42.330Z,13.67
2017-06-17T00:38:22.865Z,13.63
2017-06-17T00:39:03.401Z,13.63
2017-06-17T00:39:43.939Z,13.63
2017-06-17T00:40:24.485Z,13.63
2017-06-17T00:41:05.031Z,13.55
2017-06-17T00:41:45.572Z,13.64
2017-06-17T00:42:26.110Z,13.59
2017-06-17T00:43:06.643Z,13.55
2017-06-17T00:43:47.179Z,13.67
2017-06-17T00:44:27.722Z,13.52
2017-06-17T00:45:08.262Z,13.64
2017-06-17T00:45:48.823Z,13.52
2017-06-17T00:46:29.351Z,13.66
2017-06-17T00:47:09.888Z,13.64
2017-06-17T00:47:50.428Z,13.55
2017-06-17T00:48:30.970Z,13.54
2017-06-17T00:49:11.505Z,13.55
2017-06-17T00:49:52.076Z,13.55
2017-06-17T00:50:32.619Z,13.54
2017-06-17T00:51:13.164Z,13.59
2017-06-17T00:51:53.703Z,13.59
2017-06-17T00:52:34.237Z,13.54
2017-06-17T00:53:14.788Z,13.62
2017-06-17T00:53:55.317Z,13.57
2017-06-17T00:54:35.884Z,13.62
2017-06-17T00:55:16.417Z,13.62
2017-06-17T00:55:56.955Z,13.67
2017-06-17T00:56:37.509Z,13.57
2017-06-17T00:57:18.040Z,13.54
2017-06-17T00:57:58.577Z,13.55
2017-06-17T00:58:39.116Z,13.54
2017-06-17T00:59:19.660Z,13.52
2017-06-17T01:00:00.195Z,13.52
2017-06-17T01:00:40.730Z,13.45
2017-06-17T01:01:21.264Z,13.38
2017-06-17T01:02:01.861Z,13.44
2017-06-17T01:02:42.342Z,13.42
2017-06-17T01:03:22.882Z,13.39
2017-06-17T01:04:03.420Z,13.42
2017-06-17T01:04:43.967Z,13.39
2017-06-17T01:05:24.511Z,13.46
2017-06-17T01:06:05.048Z,13.42
2017-06-17T01:06:45.582Z,13.46
2017-06-17T01:07:26.123Z,13.44
2017-06-17T01:08:06.659Z,13.3
2017-06-17T01:08:47.195Z,13.36
2017-06-17T01:09:27.740Z,13.26
2017-06-17T01:10:08.262Z,13.26
2017-06-17T01:10:48.797Z,13.25
2017-06-17T01:11:29.328Z,13.3
2017-06-17T01:12:09.866Z,13.25
2017-06-17T01:12:50.398Z,13.26
2017-06-17T01:13:30.935Z,13.23
2017-06-17T01:14:11.469Z,13.23
2017-06-17T01:14:52.010Z,13.25
2017-06-17T01:15:32.541Z,13.28
2017-06-17T01:16:13.082Z,13.17
2017-06-17T01:16:53.615Z,13.23
2017-06-17T01:17:34.177Z,13.23
2017-06-17T01:18:14.693Z,13.14
2017-06-17T01:18:55.232Z,13.14
2017-06-17T01:19:35.810Z,13.19
2017-06-17T01:20:16.351Z,13.14
2017-06-17T01:20:56.889Z,13.23
2017-06-17T01:21:44.313Z,13.25
2017-06-17T01:22:24.841Z,13.12
2017-06-17T01:23:05.387Z,13.19
2017-06-17T01:23:45.916Z,13.14
2017-06-17T01:24:26.454Z,13.1
2017-06-17T01:25:07.064Z,13.17
2017-06-17T01:25:47.532Z,13.15
2017-06-17T01:26:28.067Z,13.12
2017-06-17T01:27:08.599Z,13.14
2017-06-17T01:27:49.145Z,13.12
2017-06-17T01:28:29.677Z,13.01
2017-06-17T01:29:10.213Z,13.1
2017-06-17T01:29:50.755Z,13.01
2017-06-17T01:30:31.291Z,13.03
2017-06-17T01:31:11.821Z,13.07
2017-06-17T01:31:52.366Z,13.04
2017-06-17T01:32:32.902Z,13.08
2017-06-17T01:33:13.435Z,13.04
2017-06-17T01:33:53.964Z,13.01
2017-06-17T01:34:34.502Z,13.01
2017-06-17T01:35:15.042Z,13.04
2017-06-17T01:35:55.577Z,13.01
2017-06-17T01:36:36.115Z,13.07
2017-06-17T01:37:16.655Z,13.05
2017-06-17T01:37:57.196Z,13.05
2017-06-17T01:38:37.738Z,13.07
2017-06-17T01:39:18.268Z,13.07
2017-06-17T01:39:58.807Z,13.03
2017-06-17T01:40:39.360Z,12.93
2017-06-17T01:41:19.899Z,12.93
2017-06-17T01:42:00.430Z,13
2017-06-17T01:42:40.968Z,12.95
2017-06-17T01:43:21.505Z,12.92
2017-06-17T01:44:02.048Z,12.92
2017-06-17T01:44:42.582Z,12.96
2017-06-17T01:45:23.119Z,12.92
2017-06-17T01:46:03.667Z,12.95
2017-06-17T01:46:44.194Z,12.96
2017-06-17T01:47:24.739Z,12.95
2017-06-17T01:48:05.281Z,12.93
2017-06-17T01:48:45.823Z,12.92
2017-06-17T01:49:26.366Z,12.95
2017-06-17T01:50:06.899Z,12.97
2017-06-17T01:50:47.424Z,12.93
2017-06-17T01:51:27.946Z,12.97
2017-06-17T01:52:08.488Z,12.9
2017-06-17T01:52:49.027Z,12.97
2017-06-17T01:53:29.565Z,12.97
2017-06-17T01:54:10.080Z,12.9
2017-06-17T01:54:51.617Z,12.9
2017-06-17T01:55:32.155Z,12.78
2017-06-17T01:56:12.691Z,12.83
2017-06-17T01:56:53.230Z,12.79
2017-06-17T01:57:33.761Z,12.86
2017-06-17T01:58:14.306Z,12.82
2017-06-17T01:58:54.850Z,12.86
2017-06-17T01:59:35.358Z,12.83
2017-06-17T02:00:15.894Z,12.77
2017-06-17T02:00:56.440Z,12.77
2017-06-17T02:01:36.962Z,12.85
2017-06-17T02:02:17.504Z,12.78
2017-06-17T02:02:58.046Z,12.71
2017-06-17T02:03:38.577Z,12.65
2017-06-17T02:04:19.126Z,12.65
2017-06-17T02:04:59.663Z,12.67
2017-06-17T02:05:40.192Z,12.68
2017-06-17T02:06:20.727Z,12.67
2017-06-17T02:07:01.263Z,12.7
2017-06-17T02:07:41.797Z,12.67
2017-06-17T02:08:22.327Z,12.64
2017-06-17T02:09:02.873Z,12.7
2017-06-17T02:09:43.425Z,12.67
2017-06-17T02:10:23.969Z,12.71
2017-06-17T02:11:04.505Z,12.67
2017-06-17T02:11:45.046Z,12.72
2017-06-17T02:12:25.587Z,12.71
2017-06-17T02:13:06.124Z,12.72
2017-06-17T02:13:46.667Z,12.67
2017-06-17T02:14:27.203Z,12.65
2017-06-17T02:15:07.742Z,12.71
2017-06-17T02:15:48.271Z,12.64
2017-06-17T02:16:28.808Z,12.67
2017-06-17T02:17:09.341Z,12.65
2017-06-17T02:17:49.891Z,12.65
2017-06-17T02:18:30.424Z,12.59
2017-06-17T02:19:10.969Z,12.6
2017-06-17T02:19:51.506Z,12.57
2017-06-17T02:20:32.048Z,12.59
2017-06-17T02:21:12.595Z,12.49
2017-06-17T02:21:53.135Z,12.53
2017-06-17T02:22:33.668Z,12.47
2017-06-17T02:23:14.213Z,12.52
2017-06-17T02:23:54.757Z,12.5
2017-06-17T02:24:35.302Z,12.45
2017-06-17T02:25:15.837Z,12.45
2017-06-17T02:25:56.381Z,12.49
2017-06-17T02:26:36.912Z,12.45
2017-06-17T02:27:17.441Z,12.45
2017-06-17T02:27:57.980Z,12.45
2017-06-17T02:28:38.520Z,12.47
2017-06-17T02:29:19.071Z,12.45
2017-06-17T02:29:59.607Z,12.45
2017-06-17T02:30:40.150Z,12.46
2017-06-17T02:31:20.688Z,12.5
2017-06-17T02:32:01.223Z,12.47
2017-06-17T02:32:41.767Z,12.46
2017-06-17T02:33:22.305Z,12.46
2017-06-17T02:34:02.858Z,12.47
2017-06-17T02:34:43.507Z,12.46
2017-06-17T02:35:24.042Z,12.49
2017-06-17T02:36:04.586Z,12.46
2017-06-17T02:36:45.123Z,12.46
2017-06-17T02:37:25.664Z,12.46
2017-06-17T02:38:06.210Z,12.47
2017-06-17T02:38:46.747Z,12.47
2017-06-17T02:39:27.282Z,12.41
2017-06-17T02:40:07.810Z,12.39
2017-06-17T02:40:48.346Z,12.37
2017-06-17T02:41:28.891Z,12.32
2017-06-17T02:42:09.436Z,12.37
2017-06-17T02:42:49.969Z,12.38
2017-06-17T02:43:30.511Z,12.34
2017-06-17T02:44:11.034Z,12.38
2017-06-17T02:44:51.585Z,12.38
2017-06-17T02:45:32.113Z,12.34
2017-06-17T02:46:12.649Z,12.34
2017-06-17T02:46:53.196Z,12.32
2017-06-17T02:47:33.744Z,12.37
2017-06-17T02:48:14.290Z,12.32
2017-06-17T02:48:54.829Z,12.32
2017-06-17T02:49:35.362Z,12.37
2017-06-17T02:50:15.904Z,12.37
2017-06-17T02:50:56.438Z,12.39
2017-06-17T02:51:36.980Z,12.37
2017-06-17T02:52:17.521Z,12.37
2017-06-17T02:52:58.063Z,12.37
2017-06-17T02:53:38.605Z,12.34
2017-06-17T02:54:19.150Z,12.32
2017-06-17T02:54:59.690Z,12.32
2017-06-17T02:55:40.217Z,12.29
2017-06-17T02:56:20.755Z,12.34
2017-06-17T02:57:01.286Z,12.35
2017-06-17T02:57:41.827Z,12.34
2017-06-17T02:58:22.363Z,12.2
2017-06-17T02:59:02.891Z,12.21
2017-06-17T02:59:43.429Z,12.23
2017-06-17T03:00:23.964Z,12.28
2017-06-17T03:01:04.499Z,12.23
2017-06-17T03:01:45.038Z,12.19
2017-06-17T03:02:25.578Z,12.2
2017-06-17T03:03:06.119Z,12.28
2017-06-17T03:03:46.660Z,12.2
2017-06-17T03:04:27.203Z,12.21
2017-06-17T03:05:07.743Z,12.13
2017-06-17T03:05:48.273Z,12.17
2017-06-17T03:06:28.810Z,12.13
2017-06-17T03:07:09.352Z,12.2
2017-06-17T03:07:49.896Z,12.13
2017-06-17T03:08:30.431Z,12.12
2017-06-17T03:09:10.974Z,12.2
2017-06-17T03:09:51.518Z,12.13
2017-06-17T03:10:32.061Z,12.2
2017-06-17T03:11:12.610Z,12.13
2017-06-17T03:11:53.149Z,12.13
2017-06-17T03:12:33.695Z,12.16
2017-06-17T03:13:14.237Z,12.13
2017-06-17T03:13:54.774Z,12.16
2017-06-17T03:14:35.311Z,12.12
2017-06-17T03:15:15.847Z,12.12
2017-06-17T03:15:56.391Z,12.19
2017-06-17T03:16:36.925Z,12.12
2017-06-17T03:17:17.480Z,12.14
2017-06-17T03:17:58.022Z,12.16
2017-06-17T03:18:38.550Z,12.24
2017-06-17T03:19:19.126Z,12.19
2017-06-17T03:19:59.607Z,12.23
2017-06-17T03:20:40.146Z,12.29
2017-06-17T03:21:20.685Z,12.27
2017-06-17T03:22:01.216Z,12.21
2017-06-17T03:22:41.753Z,12.27
2017-06-17T03:23:22.289Z,12.27
2017-06-17T03:24:02.829Z,12.27
2017-06-17T03:24:43.372Z,12.31
2017-06-17T03:25:23.896Z,12.21
2017-06-17T03:26:04.433Z,12.28
2017-06-17T03:26:44.977Z,12.24
2017-06-17T03:27:25.514Z,12.24
2017-06-17T03:28:06.044Z,12.24
2017-06-17T03:28:46.600Z,12.27
2017-06-17T03:29:27.103Z,12.28
2017-06-17T03:30:07.640Z,12.32
2017-06-17T03:30:48.185Z,12.21
2017-06-17T03:31:28.714Z,12.34
2017-06-17T03:32:09.256Z,12.35
2017-06-17T03:32:49.788Z,12.32
2017-06-17T03:33:30.331Z,12.41
2017-06-17T03:34:10.871Z,12.31
2017-06-17T03:34:51.409Z,12.35
2017-06-17T03:35:31.953Z,12.32
2017-06-17T03:36:12.503Z,12.38
2017-06-17T03:36:53.042Z,12.39
2017-06-17T03:37:33.586Z,12.5
2017-06-17T03:38:14.127Z,12.45
2017-06-17T03:38:54.653Z,12.47
2017-06-17T03:39:35.198Z,12.45
2017-06-17T03:40:15.719Z,12.54
2017-06-17T03:40:56.261Z,12.52
2017-06-17T03:41:36.798Z,12.65
2017-06-17T03:42:17.344Z,12.62
2017-06-17T03:42:57.882Z,12.67
2017-06-17T03:43:38.414Z,12.7
2017-06-17T03:44:18.947Z,12.7
2017-06-17T03:44:59.468Z,12.67
2017-06-17T03:45:40.002Z,12.72
2017-06-17T03:46:20.536Z,12.83
2017-06-17T03:47:01.084Z,12.89
2017-06-17T03:47:41.626Z,12.87
2017-06-17T03:48:22.169Z,12.83
2017-06-17T03:49:02.707Z,12.85
2017-06-17T03:49:43.225Z,12.87
2017-06-17T03:50:23.769Z,12.89
2017-06-17T03:51:04.311Z,12.95
2017-06-17T03:51:44.849Z,12.87
2017-06-17T03:52:25.384Z,12.95
2017-06-17T03:53:05.917Z,12.95
2017-06-17T03:53:46.461Z,12.96
2017-06-17T03:54:27.020Z,13.01
2017-06-17T03:55:07.535Z,13.01
2017-06-17T03:55:48.086Z,13
2017-06-17T03:56:28.604Z,13.03
2017-06-17T03:57:09.154Z,13.11
2017-06-17T03:57:49.695Z,13.1
2017-06-17T03:58:30.240Z,13.1
2017-06-17T03:59:10.758Z,13.1
2017-06-17T03:59:51.310Z,13.15
2017-06-17T04:00:31.853Z,13.23
2017-06-17T04:01:12.398Z,13.19
2017-06-17T04:01:52.921Z,13.15
2017-06-17T04:02:33.452Z,13.23
2017-06-17T04:03:13.987Z,13.19
2017-06-17T04:03:54.523Z,13.17
2017-06-17T04:04:35.084Z,13.2
2017-06-17T04:05:15.618Z,13.26
2017-06-17T04:05:56.161Z,13.22
2017-06-17T04:06:36.719Z,13.23
2017-06-17T04:07:17.271Z,13.26
2017-06-17T04:07:57.855Z,13.28
2017-06-17T04:08:38.394Z,13.33
2017-06-17T04:09:18.928Z,13.32
2017-06-17T04:09:59.474Z,13.44
2017-06-17T04:10:40.020Z,13.26
2017-06-17T04:11:20.674Z,13.32
2017-06-17T04:12:01.207Z,13.3
2017-06-17T04:12:41.758Z,13.36
2017-06-17T04:13:22.302Z,13.36
2017-06-17T04:14:02.847Z,13.45
2017-06-17T04:14:43.397Z,13.45
2017-06-17T04:15:23.934Z,13.46
2017-06-17T04:16:04.479Z,13.42
2017-06-17T04:16:45.019Z,13.57
2017-06-17T04:17:25.552Z,13.51
2017-06-17T04:18:06.108Z,13.46
2017-06-17T04:18:46.649Z,13.52
2017-06-17T04:19:27.177Z,13.55
2017-06-17T04:20:07.710Z,13.59
2017-06-17T04:20:48.258Z,13.59
2017-06-17T04:21:28.798Z,13.55
2017-06-17T04:22:09.339Z,13.54
2017-06-17T04:22:49.887Z,13.6
2017-06-17T04:23:30.423Z,13.6
2017-06-17T04:24:10.998Z,13.55
2017-06-17T04:24:51.540Z,13.55
2017-06-17T04:25:32.199Z,13.67
2017-06-17T04:26:12.752Z,13.67
2017-06-17T04:26:53.294Z,13.66
2017-06-17T04:27:33.829Z,13.69
2017-06-17T04:28:14.364Z,13.71
2017-06-17T04:28:54.953Z,13.7
2017-06-17T04:29:35.467Z,13.75
2017-06-17T04:30:16.026Z,13.75
2017-06-17T04:30:56.553Z,13.81
2017-06-17T04:31:37.087Z,13.7
2017-06-17T04:32:17.616Z,13.81
2017-06-17T04:32:58.162Z,13.82
2017-06-17T04:33:38.705Z,13.73
2017-06-17T04:34:19.256Z,13.82
2017-06-17T04:34:59.822Z,13.81
2017-06-17T04:35:40.393Z,13.88
2017-06-17T04:36:20.955Z,13.91
2017-06-17T04:37:01.500Z,13.82
2017-06-17T04:37:42.045Z,13.96
2017-06-17T04:38:22.621Z,13.88
2017-06-17T04:39:03.122Z,13.91
2017-06-17T04:39:43.697Z,13.96
2017-06-17T04:40:24.239Z,13.96
2017-06-17T04:41:04.790Z,13.96
2017-06-17T04:41:45.504Z,14.02
2017-06-17T04:42:26.011Z,14.03
2017-06-17T04:43:06.559Z,14.03
2017-06-17T04:43:47.158Z,14.03
2017-06-17T04:44:27.674Z,14.02
2017-06-17T04:45:08.257Z,13.99
2017-06-17T04:45:48.781Z,14.06
2017-06-17T04:46:29.339Z,14.1
2017-06-17T04:47:09.883Z,14.04
2017-06-17T04:47:50.502Z,14.02
2017-06-17T04:48:31.068Z,14.1
2017-06-17T04:49:11.615Z,14.15
2017-06-17T04:49:52.144Z,14.15
2017-06-17T04:50:32.697Z,14.04
2017-06-17T04:51:13.384Z,14.03
2017-06-17T04:51:54.438Z,14.07
2017-06-17T04:52:34.983Z,14.14
2017-06-17T04:53:15.523Z,14.14
2017-06-17T04:53:56.055Z,14.18
2017-06-17T04:54:36.596Z,14.24
2017-06-17T04:55:17.136Z,14.2
2017-06-17T04:55:57.719Z,14.22
2017-06-17T04:56:38.256Z,14.22
2017-06-17T04:57:18.767Z,14.2
2017-06-17T04:57:59.313Z,14.25
2017-06-17T04:58:39.834Z,14.2
2017-06-17T04:59:20.386Z,14.25
2017-06-17T05:00:00.930Z,14.21
2017-06-17T05:00:41.484Z,14.29
2017-06-17T05:01:22.031Z,14.33
2017-06-17T05:02:02.560Z,14.36
2017-06-17T05:02:43.109Z,14.35
2017-06-17T05:03:23.644Z,14.4
2017-06-17T05:04:04.170Z,14.39
2017-06-17T05:04:44.717Z,14.4
2017-06-17T05:05:25.265Z,14.42
2017-06-17T05:06:05.806Z,14.43
2017-06-17T05:06:46.355Z,14.58
2017-06-17T05:07:26.896Z,14.54
2017-06-17T05:08:07.441Z,14.54
2017-06-17T05:08:47.985Z,14.5
2017-06-17T05:09:28.520Z,14.62
2017-06-17T05:10:09.112Z,14.6
2017-06-17T05:10:49.660Z,14.65
2017-06-17T05:11:30.198Z,14.62
2017-06-17T05:12:10.758Z,14.8
2017-06-17T05:12:51.290Z,14.78
2017-06-17T05:13:31.817Z,14.73
2017-06-17T05:14:12.372Z,14.72
2017-06-17T05:14:52.895Z,14.72
2017-06-17T05:15:34.536Z,14.83
2017-06-17T05:16:15.246Z,14.83
2017-06-17T05:16:55.787Z,14.75
2017-06-17T05:17:36.318Z,14.77
2017-06-17T05:18:16.854Z,14.75
2017-06-17T05:18:57.464Z,14.84
2017-06-17T05:19:38.033Z,14.83
2017-06-17T05:20:18.602Z,14.88
2017-06-17T05:20:59.488Z,14.88
2017-06-17T05:21:40.007Z,14.89
2017-06-17T05:22:20.559Z,14.98
2017-06-17T05:23:01.097Z,14.96
2017-06-17T05:23:41.706Z,14.98
2017-06-17T05:24:22.239Z,14.98
2017-06-17T05:25:03.475Z,14.91
2017-06-17T05:25:44.077Z,14.91
2017-06-17T05:26:24.787Z,14.96
2017-06-17T05:27:05.344Z,14.95
2017-06-17T05:27:45.904Z,14.95
2017-06-17T05:28:26.444Z,15.01
2017-06-17T05:29:07.116Z,14.94
2017-06-17T05:29:47.788Z,14.99
2017-06-17T05:30:28.690Z,15.1
2017-06-17T05:31:09.240Z,15.09
2017-06-17T05:31:49.828Z,15.06
2017-06-17T05:32:30.414Z,15.07
2017-06-17T05:33:11.027Z,15.06
2017-06-17T05:33:51.609Z,15.06
2017-06-17T05:34:32.147Z,15.11
2017-06-17T05:35:12.687Z,15.11
2017-06-17T05:35:53.222Z,15.21
2017-06-17T05:36:33.766Z,15.17
2017-06-17T05:37:14.317Z,15.2
2017-06-17T05:37:54.870Z,15.23
2017-06-17T05:38:35.464Z,15.31
2017-06-17T05:39:16.031Z,15.31
2017-06-17T05:39:56.580Z,15.31
2017-06-17T05:40:37.120Z,15.35
2017-06-17T05:41:17.685Z,15.35
2017-06-17T05:41:58.233Z,15.35
2017-06-17T05:42:38.783Z,15.44
2017-06-17T05:43:19.307Z,15.32
2017-06-17T05:43:59.861Z,15.44
2017-06-17T05:44:40.410Z,15.44
2017-06-17T05:45:20.947Z,15.43
2017-06-17T05:46:01.710Z,15.46
2017-06-17T05:46:43.243Z,15.41
2017-06-17T05:47:24.903Z,15.46
2017-06-17T05:48:05.568Z,15.29
2017-06-17T05:48:46.128Z,15.44
2017-06-17T05:49:26.654Z,15.38
2017-06-17T05:50:07.198Z,15.41
2017-06-17T05:50:47.744Z,15.49
2017-06-17T05:51:28.263Z,15.49
2017-06-17T05:52:08.812Z,15.5
2017-06-17T05:52:49.354Z,15.47
2017-06-17T05:53:29.914Z,15.5
2017-06-17T05:54:10.430Z,15.57
2017-06-17T05:54:50.986Z,15.54
2017-06-17T05:55:31.530Z,15.59
2017-06-17T05:56:12.085Z,15.56
2017-06-17T05:56:52.629Z,15.65
2017-06-17T05:57:33.177Z,15.68
2017-06-17T05:58:13.720Z,15.71
2017-06-17T05:58:54.264Z,15.75
2017-06-17T05:59:34.813Z,15.75
2017-06-17T06:00:15.440Z,15.76
2017-06-17T06:00:55.974Z,15.8
2017-06-17T06:01:36.522Z,15.84
2017-06-17T06:02:17.067Z,15.84
2017-06-17T06:02:57.610Z,15.86
2017-06-17T06:03:38.149Z,15.9
2017-06-17T06:04:18.689Z,15.93
2017-06-17T06:04:59.236Z,15.97
2017-06-17T06:05:39.774Z,15.97
2017-06-17T06:06:20.313Z,16.05
2017-06-17T06:07:00.856Z,15.97
2017-06-17T06:07:41.380Z,16.01
2017-06-17T06:08:21.984Z,16.02
2017-06-17T06:09:02.524Z,15.97
2017-06-17T06:09:43.074Z,16
2017-06-17T06:10:23.623Z,16.14
2017-06-17T06:11:04.270Z,16.08
2017-06-17T06:11:44.784Z,16.12
2017-06-17T06:12:25.389Z,16.25
2017-06-17T06:13:05.924Z,16.24
2017-06-17T06:13:46.477Z,16.24
2017-06-17T06:14:27.013Z,16.21
2017-06-17T06:15:07.561Z,16.27
2017-06-17T06:15:48.101Z,16.34
2017-06-17T06:16:28.648Z,16.33
2017-06-17T06:17:09.177Z,16.27
2017-06-17T06:17:49.702Z,16.42
2017-06-17T06:18:30.258Z,16.43
2017-06-17T06:19:10.774Z,16.48
2017-06-17T06:19:51.306Z,16.41
2017-06-17T06:20:31.846Z,16.45
2017-06-17T06:21:12.378Z,16.46
2017-06-17T06:21:52.921Z,16.38
2017-06-17T06:22:33.450Z,16.58
2017-06-17T06:23:13.984Z,16.58
2017-06-17T06:23:54.543Z,16.67
2017-06-17T06:24:35.210Z,16.71
2017-06-17T06:25:15.772Z,16.68
2017-06-17T06:25:56.354Z,16.64
2017-06-17T06:26:36.877Z,16.66
2017-06-17T06:27:17.431Z,16.76
2017-06-17T06:27:57.961Z,16.73
2017-06-17T06:28:38.503Z,16.68
2017-06-17T06:29:19.046Z,16.68
2017-06-17T06:29:59.586Z,16.67
2017-06-17T06:30:40.113Z,16.66
2017-06-17T06:31:20.659Z,16.71
2017-06-17T06:32:01.200Z,16.64
2017-06-17T06:32:41.724Z,16.7
2017-06-17T06:33:22.270Z,16.73
2017-06-17T06:34:02.805Z,16.76
2017-06-17T06:34:43.359Z,16.76
2017-06-17T06:35:23.903Z,16.86
2017-06-17T06:36:04.465Z,16.88
2017-06-17T06:36:45.012Z,16.86
2017-06-17T06:37:25.549Z,16.86
2017-06-17T06:38:06.069Z,16.91
2017-06-17T06:38:46.617Z,16.83
2017-06-17T06:39:27.152Z,16.91
2017-06-17T06:40:07.702Z,16.88
2017-06-17T06:40:48.217Z,16.91
2017-06-17T06:41:28.757Z,16.88
2017-06-17T06:42:09.279Z,16.86
2017-06-17T06:42:49.825Z,16.79
2017-06-17T06:43:30.369Z,16.85
2017-06-17T06:44:10.905Z,16.91
2017-06-17T06:44:51.467Z,16.85
2017-06-17T06:45:31.992Z,16.85
2017-06-17T06:46:12.539Z,16.91
2017-06-17T06:46:53.093Z,16.85
2017-06-17T06:47:33.638Z,16.88
2017-06-17T06:48:14.177Z,16.96
2017-06-17T06:48:54.719Z,16.82
2017-06-17T06:49:35.244Z,16.94
2017-06-17T06:50:15.771Z,16.89
2017-06-17T06:50:56.315Z,16.91
2017-06-17T06:51:36.864Z,16.85
2017-06-17T06:52:17.394Z,16.83
2017-06-17T06:52:57.942Z,16.89
2017-06-17T06:53:38.480Z,16.86
2017-06-17T06:54:19.020Z,16.79
2017-06-17T06:54:59.569Z,16.82
2017-06-17T06:55:40.103Z,16.78
2017-06-17T06:56:20.651Z,16.75
2017-06-17T06:57:01.165Z,16.83
2017-06-17T06:57:41.701Z,16.81
2017-06-17T06:58:22.257Z,16.81
2017-06-17T06:59:02.799Z,16.89
2017-06-17T06:59:43.368Z,16.86
2017-06-17T07:00:23.895Z,16.91
2017-06-17T07:01:04.426Z,16.86
2017-06-17T07:01:44.942Z,16.91
2017-06-17T07:02:25.492Z,16.86
2017-06-17T07:03:06.034Z,16.88
2017-06-17T07:03:46.559Z,16.89
2017-06-17T07:04:27.113Z,16.82
2017-06-17T07:05:07.839Z,16.81
2017-06-17T07:05:48.488Z,16.82
2017-06-17T07:06:29.038Z,16.82
2017-06-17T07:07:09.596Z,16.78
2017-06-17T07:07:50.159Z,16.81
2017-06-17T07:08:30.743Z,16.83
2017-06-17T07:09:11.301Z,16.86
2017-06-17T07:09:51.849Z,16.79
2017-06-17T07:10:32.393Z,16.82
2017-06-17T07:11:12.940Z,16.88
2017-06-17T07:11:53.477Z,16.85
2017-06-17T07:12:34.029Z,16.85
2017-06-17T07:13:14.592Z,16.82
2017-06-17T07:13:55.151Z,16.94
2017-06-17T07:14:35.684Z,16.94
2017-06-17T07:15:16.229Z,16.91
2017-06-17T07:15:56.784Z,16.93
2017-06-17T07:16:37.336Z,16.88
2017-06-17T07:17:17.885Z,16.93
2017-06-17T07:17:58.454Z,16.98
2017-06-17T07:18:39.013Z,16.98
2017-06-17T07:19:19.562Z,16.98
2017-06-17T07:20:00.210Z,16.93
2017-06-17T07:20:40.745Z,16.97
2017-06-17T07:21:21.321Z,17.04
2017-06-17T07:22:01.883Z,17.01
2017-06-17T07:22:42.467Z,16.98
2017-06-17T07:23:23.136Z,16.97
2017-06-17T07:24:03.672Z,17
2017-06-17T07:24:44.259Z,17.08
2017-06-17T07:25:24.799Z,17.08
2017-06-17T07:26:05.382Z,17.06
2017-06-17T07:26:45.968Z,17.07
2017-06-17T07:27:26.521Z,17.08
2017-06-17T07:28:07.097Z,17.07
2017-06-17T07:28:47.635Z,17.08
2017-06-17T07:29:28.163Z,17.06
2017-06-17T07:30:08.692Z,17.01
2017-06-17T07:30:49.266Z,17.03
2017-06-17T07:31:29.859Z,17.07
2017-06-17T07:32:10.438Z,17.07
2017-06-17T07:32:50.964Z,17.06
2017-06-17T07:33:31.640Z,17.07
2017-06-17T07:34:12.213Z,17.04
2017-06-17T07:34:52.783Z,17.04
2017-06-17T07:35:33.329Z,17.15
2017-06-17T07:36:13.939Z,17.16
2017-06-17T07:36:54.849Z,17.19
2017-06-17T07:37:35.427Z,17.21
2017-06-17T07:38:16.177Z,17.18
2017-06-17T07:38:56.764Z,17.21
2017-06-17T07:39:37.514Z,17.22
2017-06-17T07:40:18.090Z,17.3
2017-06-17T07:40:58.732Z,17.26
2017-06-17T07:41:39.418Z,17.21
2017-06-17T07:42:20.036Z,17.3
2017-06-17T07:43:00.637Z,17.31
2017-06-17T07:43:41.290Z,17.3
2017-06-17T07:44:21.869Z,17.28
2017-06-17T07:45:02.414Z,17.3
2017-06-17T07:45:42.951Z,17.31
2017-06-17T07:46:23.489Z,17.33
2017-06-17T07:47:04.119Z,17.26
2017-06-17T07:48:28.410Z,17.4
2017-06-17T07:49:08.935Z,17.23
2017-06-17T07:49:49.481Z,17.3
2017-06-17T07:50:30.019Z,17.31
2017-06-17T07:51:10.574Z,17.3
2017-06-17T07:51:51.257Z,17.19
2017-06-17T07:52:31.792Z,17.25
2017-06-17T07:53:12.302Z,17.23
2017-06-17T07:53:52.852Z,17.28
2017-06-17T07:55:42.789Z,17.28
2017-06-17T07:56:23.312Z,17.3
2017-06-17T07:57:03.829Z,17.33
2017-06-17T07:57:44.377Z,17.37
2017-06-17T07:58:24.905Z,17.43
2017-06-17T07:59:05.565Z,17.38
2017-06-17T07:59:46.116Z,17.41
2017-06-17T08:00:26.707Z,17.41
2017-06-17T08:01:07.277Z,17.51
2017-06-17T08:01:47.829Z,17.46
2017-06-17T08:02:28.394Z,17.46
2017-06-17T08:03:08.914Z,17.4
2017-06-17T08:03:49.442Z,17.41
2017-06-17T08:04:29.968Z,17.52
2017-06-17T08:05:10.610Z,17.46
2017-06-17T08:05:51.195Z,17.34
2017-06-17T08:06:31.728Z,17.43
2017-06-17T08:07:12.282Z,17.28
2017-06-17T08:07:52.929Z,17.33
2017-06-17T08:08:33.521Z,17.36
2017-06-17T08:09:14.075Z,17.38
2017-06-17T08:09:54.623Z,17.38
2017-06-17T08:10:35.161Z,17.41
2017-06-17T08:11:15.709Z,17.34
2017-06-17T08:11:56.291Z,17.34
2017-06-17T08:12:36.816Z,17.38
2017-06-17T08:13:17.363Z,17.38
2017-06-17T08:13:57.914Z,17.37
2017-06-17T08:14:38.443Z,17.43
2017-06-17T08:15:18.993Z,17.43
2017-06-17T08:15:59.530Z,17.51
2017-06-17T08:16:40.058Z,17.51
2017-06-17T08:17:20.596Z,17.59
2017-06-17T08:18:01.139Z,17.56
2017-06-17T08:18:41.681Z,17.49
2017-06-17T08:19:22.246Z,17.4
2017-06-17T08:20:02.774Z,17.4
2017-06-17T08:20:43.325Z,17.36
2017-06-17T08:21:23.892Z,17.26
2017-06-17T08:22:04.436Z,17.23
2017-06-17T08:22:44.977Z,17.34
2017-06-17T08:23:25.525Z,17.31
2017-06-17T08:24:06.062Z,17.34
2017-06-17T08:24:46.605Z,17.31
2017-06-17T08:25:27.150Z,17.3
2017-06-17T08:26:07.698Z,17.3
2017-06-17T08:26:48.246Z,17.31
2017-06-17T08:27:28.774Z,17.3
2017-06-17T08:28:09.296Z,17.28
2017-06-17T08:28:49.833Z,17.28
2017-06-17T08:29:30.376Z,17.3
2017-06-17T08:30:10.915Z,17.41
2017-06-17T08:30:51.461Z,17.38
2017-06-17T08:31:31.995Z,17.4
2017-06-17T08:32:12.524Z,17.4
2017-06-17T08:32:53.075Z,17.44
2017-06-17T08:33:33.617Z,17.49
2017-06-17T08:34:14.177Z,17.51
2017-06-17T08:34:54.704Z,17.49
2017-06-17T08:35:35.236Z,17.56
2017-06-17T08:36:15.770Z,17.59
2017-06-17T08:36:56.314Z,17.56
2017-06-17T08:37:36.904Z,17.59
2017-06-17T08:38:17.458Z,17.63
2017-06-17T08:38:57.993Z,17.68
2017-06-17T08:39:38.561Z,17.72
2017-06-17T08:40:19.099Z,17.72
2017-06-17T08:40:59.634Z,17.75
2017-06-17T08:41:40.175Z,17.81
2017-06-17T08:42:20.709Z,17.92
2017-06-17T08:43:01.252Z,17.92
2017-06-17T08:43:41.785Z,17.96
2017-06-17T08:44:22.311Z,17.93
2017-06-17T08:45:02.845Z,17.89
2017-06-17T08:45:43.385Z,17.89
2017-06-17T08:46:23.919Z,17.81